KMYF/MYF METAR and TAF weather

Enter ICAO airport designator
Station Type Date Time Source
KMYF METAR 2020/04/06 15:02 UTC NOAA

KMYF 061502Z 16009KT 10SM -RA SCT013 BKN021 OVC041 13/11 A2993 RMK AO2 RAB1454 P0000 T01330111


Station Type Date Time Source
KMYF Decoded METAR 2020/04/06 15:02 UTC NOAA

SAN DIEGO MONTGOMERY FIELD, CA, United States (KMYF) 32-49N 117-08W 136M
Apr 06, 2020 - 11:02 AM EDT / 2020.04.06 1502 UTC
Wind: from the SSE (160 degrees) at 10 MPH (9 KT):0
Visibility: 10 mile(s):0
Sky conditions: overcast
Weather: light rain
Precipitation last hour: A trace
Temperature: 55.9 F (13.3 C)
Dew Point: 52.0 F (11.1 C)
Relative Humidity: 86%
Pressure (altimeter): 29.93 in. Hg (1013 hPa)
ob: KMYF 061502Z 16009KT 10SM -RA SCT013 BKN021 OVC041 13/11 A2993 RMK AO2 RAB1454 P0000 T01330111
cycle: 15

Station Type Date Time Source
KMYF TAF UTC NOAA

Error!

Example: see airport list